Bookmark and Share
Track history (hours):
 

Yasemin

Last reported at 2014-Apr-17 23:11 UTC. Time now 2014-Apr-19 09:32 UTC.
Position N 45°45' W 002°38'.

Length 105 m; draft 7.2 m.

Type: Cargo ship. MMSI: 249988000.

NotesDate/timePositionNaut miles runAvg speedWind from/ knotsBaromVisibWave heightAir tempDewpointWater temp
2014-Apr-17 23:11N 45°45' W 002°38'2112.6
2014-Apr-17 21:33N 45°53' W 002°11'1313.0
2014-Apr-17 20:33N 45°58' W 001°54'1312.5
2014-Apr-17 19:33N 46°03' W 001°37'1211.7
2014-Apr-17 18:32N 46°06' W 001°21'  
2014-Apr-13 09:31N 43°43' W 005°17'1111.5
2014-Apr-13 08:33N 43°45' W 005°33'1211.7
2014-Apr-13 07:32N 43°47' W 005°49'1211.8
2014-Apr-13 06:31N 43°48' W 006°05'380 7.9
2014-Apr-11 06:33N 38°05' W 009°40'1211.9
2014-Apr-11 05:33N 37°54' W 009°36'1211.8
2014-Apr-11 04:33N 37°42' W 009°33'1711.6
2014-Apr-11 03:07N 37°26' W 009°28'1911.7
2014-Apr-11 01:28N 37°07' W 009°24'1111.5
2014-Apr-11 00:30N 36°56' W 009°20'1111.1
2014-Apr-10 23:30N 36°47' W 009°12'1111.3
2014-Apr-10 22:33N 36°42' W 009°00'1511.5
2014-Apr-10 21:18N 36°38' W 008°43'912.0
2014-Apr-10 20:33N 36°35' W 008°33'1812.2
2014-Apr-10 19:04N 36°29' W 008°11'612.4
2014-Apr-10 18:33N 36°27' W 008°04'2512.5
2014-Apr-10 16:33N 36°20' W 007°34'1612.2
2014-Apr-10 15:13N 36°14' W 007°15'8112.2
2014-Apr-10 08:33N 35°58' W 005°37'1111.0
2014-Apr-10 07:33N 36°01' W 005°23'1110.6
2014-Apr-10 06:33N 36°03' W 005°11'36412.1
2014-Apr-09 00:31N 36°54' E 002°17'1210.8
2014-Apr-08 23:22N 36°56' E 002°33'2411.3
2014-Apr-08 21:13N 36°59' E 003°03'1211.4
2014-Apr-08 20:12N 36°60' E 003°18'811.5
2014-Apr-08 19:31N 37°01' E 003°27'1311.5
2014-Apr-08 18:23N 37°02' E 003°44'911.0
2014-Apr-08 17:33N 37°03' E 003°55'1111.0
2014-Apr-08 16:33N 37°03' E 004°09'  

Dump ship's entire track history

sailing weather and tide predictions

Yasemin — 9HA2114 — position and weather